createdAt,value
2022-12-22T00:01:21.900Z,100.00
2022-12-22T00:04:08.419Z,100.00
2022-12-22T00:06:56.214Z,100.00
2022-12-22T00:09:46.146Z,100.00
2022-12-22T00:12:38.421Z,100.00
2022-12-22T00:15:31.630Z,100.00
2022-12-22T00:18:18.332Z,100.00
2022-12-22T00:21:05.109Z,100.00
2022-12-22T00:23:52.977Z,100.00
2022-12-22T00:26:39.239Z,100.00
2022-12-22T00:29:30.072Z,100.00
2022-12-22T00:32:16.450Z,100.00
2022-12-22T00:35:02.583Z,100.00
2022-12-22T00:37:51.900Z,100.00
2022-12-22T00:40:40.755Z,100.00
2022-12-22T00:43:27.134Z,100.00
2022-12-22T00:46:13.854Z,100.00
2022-12-22T00:49:02.486Z,100.00
2022-12-22T00:51:49.550Z,100.00
2022-12-22T00:54:37.393Z,100.00
2022-12-22T00:57:25.022Z,100.00
2022-12-22T01:00:13.682Z,100.00
2022-12-22T01:03:00.061Z,100.00
2022-12-22T01:05:46.250Z,100.00
2022-12-22T01:08:32.508Z,100.00
2022-12-22T01:11:18.549Z,100.00
2022-12-22T01:14:06.037Z,100.00
2022-12-22T01:16:52.216Z,100.00
2022-12-22T01:19:38.620Z,100.00
2022-12-22T01:22:27.939Z,100.00
2022-12-22T01:25:14.081Z,100.00
2022-12-22T01:28:00.440Z,100.00
2022-12-22T01:30:47.929Z,100.00
2022-12-22T01:33:34.134Z,100.00
2022-12-22T01:36:20.164Z,100.00
2022-12-22T01:39:06.294Z,100.00
2022-12-22T01:41:52.631Z,100.00
2022-12-22T01:44:39.007Z,100.00
2022-12-22T01:47:52.916Z,100.00
2022-12-22T01:50:44.429Z,100.00
2022-12-22T01:53:36.811Z,100.00
2022-12-22T01:56:23.907Z,100.00
2022-12-22T01:59:13.780Z,100.00
2022-12-22T02:02:00.876Z,100.00
2022-12-22T02:04:53.093Z,100.00
2022-12-22T02:07:50.962Z,100.00
2022-12-22T02:10:49.423Z,100.00
2022-12-22T02:13:48.219Z,100.00
2022-12-22T02:16:41.211Z,100.00
2022-12-22T02:19:40.528Z,100.00
2022-12-22T02:22:40.149Z,100.00
2022-12-22T02:25:33.398Z,100.00
2022-12-22T02:28:23.105Z,100.00
2022-12-22T02:31:10.172Z,100.00
2022-12-22T02:33:56.114Z,100.00
2022-12-22T02:36:51.453Z,100.00
2022-12-22T02:39:46.638Z,100.00
2022-12-22T02:42:40.798Z,100.00
2022-12-22T02:45:35.566Z,100.00
2022-12-22T02:48:26.518Z,100.00
2022-12-22T02:51:22.876Z,100.00
2022-12-22T02:54:10.839Z,100.00
2022-12-22T02:56:57.459Z,100.00
2022-12-22T02:59:43.443Z,100.00
2022-12-22T03:02:31.482Z,100.00
2022-12-22T03:05:17.550Z,100.00
2022-12-22T03:08:08.164Z,100.00
2022-12-22T03:10:55.614Z,100.00
2022-12-22T03:13:41.989Z,100.00
2022-12-22T03:16:28.133Z,100.00
2022-12-22T03:19:15.478Z,100.00
2022-12-22T03:22:01.478Z,100.00
2022-12-22T03:24:47.791Z,100.00
2022-12-22T03:27:16.509Z,100.00
2022-12-22T03:29:44.850Z,100.00
2022-12-22T03:32:13.220Z,100.00
2022-12-22T03:34:43.097Z,100.00
2022-12-22T03:37:11.420Z,100.00
2022-12-22T03:39:39.943Z,100.00
2022-12-22T03:42:25.979Z,100.00
2022-12-22T03:45:12.483Z,100.00
2022-12-22T03:47:41.137Z,100.00
2022-12-22T03:50:11.727Z,100.00
2022-12-22T03:52:40.032Z,100.00
2022-12-22T03:55:09.183Z,100.00
2022-12-22T03:57:37.486Z,100.00
2022-12-22T04:00:07.395Z,100.00
2022-12-22T04:02:35.826Z,100.00
2022-12-22T04:05:04.601Z,100.00
2022-12-22T04:07:34.472Z,100.00
2022-12-22T04:10:19.677Z,100.00
2022-12-22T04:12:57.404Z,100.00
2022-12-22T04:15:28.838Z,100.00
2022-12-22T04:17:58.753Z,100.00
2022-12-22T04:20:28.339Z,100.00
2022-12-22T04:22:58.879Z,100.00
2022-12-22T04:25:28.431Z,100.00
2022-12-22T04:27:56.898Z,100.00
2022-12-22T04:30:25.250Z,100.00
2022-12-22T04:32:53.574Z,100.00
2022-12-22T04:35:22.139Z,100.00
2022-12-22T04:37:50.464Z,100.00
2022-12-22T04:40:20.335Z,100.00
2022-12-22T04:42:48.812Z,100.00
2022-12-22T04:45:17.265Z,100.00
2022-12-22T04:47:45.614Z,100.00
2022-12-22T04:50:13.909Z,100.00
2022-12-22T04:52:42.470Z,100.00
2022-12-22T04:55:11.059Z,100.00
2022-12-22T04:57:41.281Z,100.00
2022-12-22T05:00:11.044Z,100.00
2022-12-22T05:02:39.448Z,100.00
2022-12-22T05:05:09.414Z,100.00
2022-12-22T05:07:38.051Z,100.00
2022-12-22T05:10:07.107Z,100.00
2022-12-22T05:12:53.199Z,100.00
2022-12-22T05:15:23.330Z,100.00
2022-12-22T05:17:51.951Z,100.00
2022-12-22T05:20:20.508Z,100.00
2022-12-22T05:22:49.194Z,100.00
2022-12-22T05:25:18.235Z,100.00
2022-12-22T05:27:57.675Z,100.00
2022-12-22T05:30:27.448Z,100.00
2022-12-22T05:32:55.777Z,100.00
2022-12-22T05:35:24.247Z,100.00
2022-12-22T05:37:52.645Z,100.00
2022-12-22T05:40:21.121Z,100.00
2022-12-22T05:42:49.451Z,100.00
2022-12-22T05:45:20.077Z,100.00
2022-12-22T05:47:52.308Z,100.00
2022-12-22T05:50:23.458Z,100.00
2022-12-22T05:52:51.807Z,100.00
2022-12-22T05:55:20.105Z,100.00
2022-12-22T05:57:48.414Z,100.00
2022-12-22T06:00:18.719Z,100.00
2022-12-22T06:02:47.281Z,100.00
2022-12-22T06:05:17.028Z,100.00
2022-12-22T06:07:45.399Z,100.00
2022-12-22T06:10:14.270Z,100.00
2022-12-22T06:12:43.568Z,100.00
2022-12-22T06:15:15.250Z,100.00
2022-12-22T06:17:45.141Z,100.00
2022-12-22T06:20:14.655Z,100.00
2022-12-22T06:22:44.516Z,100.00
2022-12-22T06:25:18.093Z,100.00
2022-12-22T06:27:47.546Z,100.00
2022-12-22T06:30:16.905Z,100.00
2022-12-22T06:32:45.291Z,100.00
2022-12-22T06:35:13.699Z,100.00
2022-12-22T06:37:43.716Z,100.00
2022-12-22T06:40:12.726Z,100.00
2022-12-22T06:43:04.135Z,100.00
2022-12-22T06:45:37.701Z,100.00
2022-12-22T06:48:06.228Z,100.00
2022-12-22T06:50:34.975Z,100.00
2022-12-22T06:53:05.166Z,100.00
2022-12-22T06:55:33.579Z,100.00
2022-12-22T06:58:02.263Z,100.00
2022-12-22T07:00:30.658Z,100.00
2022-12-22T07:02:59.259Z,100.00
2022-12-22T07:05:28.013Z,100.00
2022-12-22T07:07:57.905Z,100.00
2022-12-22T07:10:48.433Z,100.00
2022-12-22T07:13:24.165Z,100.00
2022-12-22T07:16:00.213Z,100.00
2022-12-22T07:18:31.236Z,100.00
2022-12-22T07:21:02.142Z,100.00
2022-12-22T07:23:31.218Z,100.00
2022-12-22T07:26:00.914Z,100.00
2022-12-22T07:28:29.528Z,100.00
2022-12-22T07:30:57.918Z,100.00
2022-12-22T07:33:26.365Z,100.00
2022-12-22T07:36:06.903Z,100.00
2022-12-22T07:38:37.372Z,100.00
2022-12-22T07:41:28.863Z,100.00
2022-12-22T07:43:58.457Z,100.00
2022-12-22T07:46:29.404Z,100.00
2022-12-22T07:49:15.602Z,100.00
2022-12-22T07:51:44.568Z,100.00
2022-12-22T07:54:14.798Z,100.00
2022-12-22T07:56:45.785Z,100.00
2022-12-22T07:59:14.824Z,100.00
2022-12-22T08:01:43.562Z,100.00
2022-12-22T08:04:12.240Z,100.00
2022-12-22T08:06:41.128Z,100.00
2022-12-22T08:09:11.052Z,100.00
2022-12-22T08:11:39.543Z,100.00
2022-12-22T08:14:09.491Z,100.00
2022-12-22T08:16:38.048Z,100.00
2022-12-22T08:19:06.406Z,100.00
2022-12-22T08:21:34.715Z,100.00
2022-12-22T08:24:03.166Z,100.00
2022-12-22T08:26:36.681Z,100.00
2022-12-22T08:29:12.408Z,100.00
2022-12-22T08:31:41.839Z,100.00
2022-12-22T08:34:13.623Z,100.00
2022-12-22T08:36:45.007Z,100.00
2022-12-22T08:39:15.640Z,100.00
2022-12-22T08:41:53.391Z,100.00
2022-12-22T08:44:24.923Z,100.00
2022-12-22T08:46:55.073Z,100.00
2022-12-22T08:49:24.328Z,100.00
2022-12-22T08:51:53.265Z,100.00
2022-12-22T08:54:22.125Z,100.00
2022-12-22T08:56:50.992Z,100.00
2022-12-22T08:59:19.647Z,100.00
2022-12-22T09:01:50.679Z,100.00
2022-12-22T09:04:22.067Z,100.00
2022-12-22T09:06:53.170Z,100.00
2022-12-22T09:09:22.080Z,100.00
2022-12-22T09:11:50.458Z,100.00
2022-12-22T09:14:19.012Z,100.00
2022-12-22T09:16:50.316Z,100.00
2022-12-22T09:19:18.932Z,100.00
2022-12-22T09:21:47.422Z,100.00
2022-12-22T09:24:16.200Z,100.00
2022-12-22T09:26:45.522Z,100.00
2022-12-22T09:29:15.988Z,100.00
2022-12-22T09:31:44.636Z,100.00
2022-12-22T09:34:18.023Z,100.00
2022-12-22T09:36:47.769Z,100.00
2022-12-22T09:39:16.855Z,100.00
2022-12-22T09:41:48.375Z,100.00
2022-12-22T09:44:24.768Z,100.00
2022-12-22T09:46:55.046Z,100.00
2022-12-22T09:49:24.800Z,100.00
2022-12-22T09:51:57.004Z,100.00
2022-12-22T09:54:26.790Z,100.00
2022-12-22T09:56:55.109Z,100.00
2022-12-22T09:59:27.052Z,100.00
2022-12-22T10:02:04.877Z,100.00
2022-12-22T10:04:50.183Z,100.00
2022-12-22T10:07:26.030Z,100.00
2022-12-22T10:09:54.593Z,100.00
2022-12-22T10:12:24.949Z,100.00
2022-12-22T10:14:55.187Z,100.00
2022-12-22T10:17:26.457Z,100.00
2022-12-22T10:20:10.602Z,100.00
2022-12-22T10:22:48.143Z,100.00
2022-12-22T10:25:35.781Z,100.00
2022-12-22T10:28:21.689Z,100.00
2022-12-22T10:30:50.483Z,100.00
2022-12-22T10:33:19.977Z,100.00
2022-12-22T10:35:52.677Z,100.00
2022-12-22T10:38:26.017Z,100.00
2022-12-22T10:41:02.129Z,100.00
2022-12-22T10:43:33.964Z,100.00
2022-12-22T10:46:04.294Z,100.00
2022-12-22T10:48:34.956Z,100.00
2022-12-22T10:51:07.941Z,100.00
2022-12-22T10:53:46.228Z,100.00
2022-12-22T10:56:23.227Z,100.00
2022-12-22T10:58:53.586Z,90.80
2022-12-22T11:01:30.082Z,74.05
2022-12-22T11:04:15.364Z,60.99
2022-12-22T11:06:45.975Z,53.28
2022-12-22T11:09:32.980Z,51.85
2022-12-22T11:12:11.772Z,44.57
2022-12-22T11:14:48.975Z,43.57
2022-12-22T11:17:23.892Z,44.04
2022-12-22T11:20:05.106Z,49.92
2022-12-22T11:22:41.468Z,59.58
2022-12-22T11:25:28.928Z,65.69
2022-12-22T11:28:18.646Z,65.69
2022-12-22T11:31:00.532Z,56.75
2022-12-22T11:33:44.523Z,60.74
2022-12-22T11:36:24.121Z,52.98
2022-12-22T11:39:01.421Z,50.82
2022-12-22T11:41:43.515Z,52.46
2022-12-22T11:44:27.694Z,47.75
2022-12-22T11:47:04.772Z,45.23
2022-12-22T11:49:48.228Z,44.26
2022-12-22T11:52:35.854Z,48.96
2022-12-22T11:55:25.075Z,51.72
2022-12-22T11:58:04.901Z,55.81
2022-12-22T12:01:12.610Z,57.83
2022-12-22T12:03:53.967Z,55.47
2022-12-22T12:06:31.738Z,50.18
2022-12-22T12:09:12.051Z,48.76
2022-12-22T12:11:48.208Z,44.07
2022-12-22T12:14:25.569Z,39.72
2022-12-22T12:17:00.501Z,38.30
2022-12-22T12:20:04.386Z,45.20
2022-12-22T12:22:46.078Z,50.70
2022-12-22T12:25:29.283Z,54.37
2022-12-22T12:28:13.119Z,57.70
2022-12-22T12:30:51.894Z,60.63
2022-12-22T12:33:28.405Z,62.98
2022-12-22T12:36:04.200Z,64.32
2022-12-22T12:41:42.302Z,67.53
2022-12-22T12:44:14.900Z,68.42
2022-12-22T12:46:56.492Z,69.59
2022-12-22T12:50:03.298Z,70.19
2022-12-22T12:53:16.719Z,69.61
2022-12-22T12:56:03.515Z,68.50
2022-12-22T12:58:50.315Z,68.46
2022-12-22T13:01:58.404Z,70.23
2022-12-22T13:05:11.304Z,69.26
2022-12-22T13:08:16.749Z,70.36
2022-12-22T13:11:10.135Z,71.16
2022-12-22T13:13:48.784Z,71.02
2022-12-22T13:16:32.621Z,71.32
2022-12-22T13:19:06.706Z,69.90
2022-12-22T13:21:56.013Z,69.95
2022-12-22T13:24:30.891Z,68.72
2022-12-22T13:27:08.090Z,69.21
2022-12-22T13:29:47.736Z,69.38
2022-12-22T13:32:26.194Z,69.27
2022-12-22T13:37:53.807Z,68.36
2022-12-22T13:40:24.903Z,68.62
2022-12-22T13:42:56.153Z,68.71
2022-12-22T13:45:34.833Z,70.12
2022-12-22T13:48:06.065Z,71.24
2022-12-22T13:50:38.080Z,72.75
2022-12-22T13:53:09.071Z,73.92
2022-12-22T13:55:39.095Z,74.46
2022-12-22T13:58:22.030Z,74.71
2022-12-22T14:01:01.688Z,74.96
2022-12-22T14:06:27.732Z,73.45
2022-12-22T14:09:11.171Z,72.24
2022-12-22T14:11:45.554Z,73.61
2022-12-22T14:14:20.535Z,73.14
2022-12-22T14:16:52.861Z,73.70
2022-12-22T14:19:23.310Z,73.74
2022-12-22T14:22:03.735Z,74.00
2022-12-22T14:24:38.715Z,74.79
2022-12-22T14:27:17.706Z,75.47
2022-12-22T14:29:46.561Z,75.71
2022-12-22T14:32:35.489Z,76.13
2022-12-22T14:35:04.622Z,76.41
2022-12-22T14:37:33.449Z,76.73
2022-12-22T14:40:01.875Z,77.45
2022-12-22T14:42:31.781Z,78.29
2022-12-22T14:45:00.625Z,79.08
2022-12-22T14:47:30.636Z,79.43
2022-12-22T14:50:02.479Z,79.31
2022-12-22T14:52:37.636Z,79.45
2022-12-22T14:55:19.464Z,79.85
2022-12-22T14:57:54.667Z,80.29
2022-12-22T15:00:45.483Z,79.72
2022-12-22T15:03:31.932Z,80.08
2022-12-22T15:06:25.597Z,80.37
2022-12-22T15:09:08.818Z,80.53
2022-12-22T15:11:39.914Z,81.12
2022-12-22T15:14:13.010Z,81.20
2022-12-22T15:16:41.635Z,81.54
2022-12-22T15:19:15.302Z,81.62
2022-12-22T15:21:43.985Z,82.12
2022-12-22T15:24:15.385Z,82.46
2022-12-22T15:26:44.422Z,82.48
2022-12-22T15:29:13.125Z,82.88
2022-12-22T15:31:43.236Z,82.79
2022-12-22T15:34:17.617Z,82.99
2022-12-22T15:36:46.134Z,83.37
2022-12-22T15:39:16.844Z,83.23
2022-12-22T15:41:46.235Z,83.03
2022-12-22T15:44:15.137Z,83.06
2022-12-22T15:46:45.864Z,83.39
2022-12-22T15:49:19.119Z,83.68
2022-12-22T15:51:50.950Z,83.46
2022-12-22T15:54:20.035Z,83.40
2022-12-22T15:56:51.236Z,83.31
2022-12-22T15:59:23.510Z,83.50
2022-12-22T16:01:58.367Z,84.52
2022-12-22T16:04:30.791Z,84.96
2022-12-22T16:07:00.323Z,84.62
2022-12-22T16:09:38.109Z,85.12
2022-12-22T16:12:13.114Z,85.86
2022-12-22T16:14:49.793Z,85.98
2022-12-22T16:17:23.112Z,85.81
2022-12-22T16:19:53.128Z,85.98
2022-12-22T16:22:26.978Z,86.07
2022-12-22T16:24:55.630Z,86.60
2022-12-22T16:27:24.136Z,87.12
2022-12-22T16:29:54.941Z,87.66
2022-12-22T16:32:28.444Z,88.77
2022-12-22T16:35:14.820Z,89.69
2022-12-22T16:37:43.662Z,89.88
2022-12-22T16:40:12.687Z,90.50
2022-12-22T16:45:33.258Z,90.77
2022-12-22T16:48:06.579Z,90.43
2022-12-22T16:50:36.650Z,90.47
2022-12-22T16:53:07.068Z,91.46
2022-12-22T16:55:35.944Z,91.75
2022-12-22T16:58:12.831Z,92.00
2022-12-22T17:00:44.615Z,92.93
2022-12-22T17:03:16.095Z,93.67
2022-12-22T17:05:49.178Z,94.41
2022-12-22T17:08:21.841Z,94.61
2022-12-22T17:10:51.902Z,95.41
2022-12-22T17:13:21.334Z,95.64
2022-12-22T17:15:49.711Z,95.64
2022-12-22T17:18:20.446Z,96.02
2022-12-22T17:20:52.349Z,96.70
2022-12-22T17:23:30.878Z,97.31
2022-12-22T17:26:01.559Z,97.84
2022-12-22T17:28:30.280Z,98.17
2022-12-22T17:30:59.268Z,98.50
2022-12-22T17:33:27.891Z,98.68
2022-12-22T17:35:58.454Z,99.35
2022-12-22T17:38:28.866Z,99.45
2022-12-22T17:40:57.564Z,99.58
2022-12-22T17:43:26.271Z,100.00
2022-12-22T17:45:54.635Z,99.73
2022-12-22T17:48:22.984Z,100.00
2022-12-22T17:50:51.707Z,100.00
2022-12-22T17:53:22.432Z,100.00
2022-12-22T17:56:08.980Z,100.00
2022-12-22T17:58:38.456Z,100.00
2022-12-22T18:01:07.672Z,100.00
2022-12-22T18:03:36.020Z,100.00
2022-12-22T18:06:05.274Z,100.00
2022-12-22T18:08:35.871Z,100.00
2022-12-22T18:11:04.675Z,100.00
2022-12-22T18:13:33.958Z,100.00
2022-12-22T18:16:02.616Z,100.00
2022-12-22T18:18:32.420Z,100.00
2022-12-22T18:21:06.476Z,100.00
2022-12-22T18:23:39.684Z,100.00
2022-12-22T18:26:18.173Z,100.00
2022-12-22T18:28:46.786Z,100.00
2022-12-22T18:31:15.232Z,100.00
2022-12-22T18:33:45.955Z,100.00
2022-12-22T18:36:18.677Z,100.00
2022-12-22T18:38:49.992Z,100.00
2022-12-22T18:41:21.995Z,100.00
2022-12-22T18:43:52.534Z,100.00
2022-12-22T18:46:22.010Z,100.00
2022-12-22T18:48:50.699Z,100.00
2022-12-22T18:51:22.092Z,100.00
2022-12-22T18:53:54.732Z,100.00
2022-12-22T18:56:23.545Z,100.00
2022-12-22T18:58:52.309Z,100.00
2022-12-22T19:01:24.242Z,100.00
2022-12-22T19:03:55.279Z,100.00
2022-12-22T19:06:25.204Z,100.00
2022-12-22T19:08:55.400Z,100.00
2022-12-22T19:11:29.681Z,100.00
2022-12-22T19:13:58.820Z,100.00
2022-12-22T19:16:28.073Z,100.00
2022-12-22T19:18:59.826Z,100.00
2022-12-22T19:21:28.450Z,100.00
2022-12-22T19:23:58.389Z,100.00
2022-12-22T19:26:28.742Z,100.00
2022-12-22T19:29:00.536Z,100.00
2022-12-22T19:31:31.818Z,100.00
2022-12-22T19:34:02.446Z,100.00
2022-12-22T19:36:33.259Z,100.00
2022-12-22T19:39:05.450Z,100.00
2022-12-22T19:41:41.303Z,100.00
2022-12-22T19:44:37.485Z,100.00
2022-12-22T19:47:16.662Z,100.00
2022-12-22T19:49:45.730Z,100.00
2022-12-22T19:52:14.407Z,100.00
2022-12-22T19:54:44.684Z,100.00
2022-12-22T19:57:19.111Z,100.00
2022-12-22T19:59:50.809Z,100.00
2022-12-22T20:02:31.985Z,100.00
2022-12-22T20:05:03.600Z,100.00
2022-12-22T20:07:36.854Z,100.00
2022-12-22T20:10:08.433Z,100.00
2022-12-22T20:12:42.384Z,100.00
2022-12-22T20:15:17.977Z,100.00
2022-12-22T20:17:47.199Z,100.00
2022-12-22T20:20:17.072Z,100.00
2022-12-22T20:22:57.561Z,100.00
2022-12-22T20:25:38.489Z,100.00
2022-12-22T20:28:13.689Z,100.00
2022-12-22T20:30:42.839Z,100.00
2022-12-22T20:33:12.201Z,100.00
2022-12-22T20:35:45.571Z,100.00
2022-12-22T20:38:19.194Z,100.00
2022-12-22T20:40:50.656Z,100.00
2022-12-22T20:43:22.848Z,100.00
2022-12-22T20:45:57.537Z,100.00
2022-12-22T20:48:32.746Z,100.00
2022-12-22T20:51:02.111Z,100.00
2022-12-22T20:53:30.840Z,100.00
2022-12-22T20:56:01.908Z,100.00
2022-12-22T20:58:34.790Z,100.00
2022-12-22T21:01:04.321Z,100.00
2022-12-22T21:03:32.826Z,100.00
2022-12-22T21:06:02.129Z,100.00
2022-12-22T21:08:31.355Z,100.00
2022-12-22T21:11:01.982Z,100.00
2022-12-22T21:13:30.448Z,100.00
2022-12-22T21:15:58.858Z,100.00
2022-12-22T21:18:27.783Z,100.00
2022-12-22T21:20:56.524Z,100.00
2022-12-22T21:23:25.038Z,100.00
2022-12-22T21:25:54.446Z,100.00
2022-12-22T21:28:30.813Z,100.00
2022-12-22T21:31:00.292Z,100.00
2022-12-22T21:33:32.283Z,100.00
2022-12-22T21:36:03.231Z,100.00
2022-12-22T21:38:34.824Z,100.00
2022-12-22T21:41:03.828Z,100.00
2022-12-22T21:43:33.671Z,100.00
2022-12-22T21:46:05.816Z,100.00
2022-12-22T21:48:38.303Z,100.00
2022-12-22T21:51:08.222Z,100.00
2022-12-22T21:53:37.250Z,100.00
2022-12-22T21:56:17.416Z,100.00
2022-12-22T21:58:48.034Z,100.00
2022-12-22T22:01:17.977Z,100.00
2022-12-22T22:03:46.461Z,100.00
2022-12-22T22:06:14.933Z,100.00
2022-12-22T22:08:43.389Z,100.00
2022-12-22T22:11:19.530Z,100.00
2022-12-22T22:13:52.223Z,100.00
2022-12-22T22:16:21.784Z,100.00
2022-12-22T22:18:51.278Z,100.00
2022-12-22T22:21:20.636Z,100.00
2022-12-22T22:23:49.490Z,100.00
2022-12-22T22:26:18.381Z,100.00
2022-12-22T22:28:49.440Z,100.00
2022-12-22T22:31:18.280Z,100.00
2022-12-22T22:33:49.742Z,100.00
2022-12-22T22:36:18.493Z,100.00
2022-12-22T22:38:51.902Z,100.00
2022-12-22T22:41:20.851Z,100.00
2022-12-22T22:43:50.649Z,100.00
2022-12-22T22:46:19.347Z,100.00
2022-12-22T22:48:48.483Z,100.00
2022-12-22T22:51:17.089Z,100.00
2022-12-22T22:53:45.590Z,100.00
2022-12-22T22:56:14.037Z,100.00
2022-12-22T22:58:42.483Z,100.00
2022-12-22T23:01:12.675Z,100.00
2022-12-22T23:03:41.974Z,100.00
2022-12-22T23:06:13.828Z,100.00
2022-12-22T23:08:42.450Z,100.00
2022-12-22T23:11:13.860Z,100.00
2022-12-22T23:13:42.750Z,100.00
2022-12-22T23:16:12.683Z,100.00
2022-12-22T23:18:41.240Z,100.00
2022-12-22T23:21:10.079Z,100.00
2022-12-22T23:23:38.785Z,100.00
2022-12-22T23:26:07.660Z,100.00
2022-12-22T23:28:36.117Z,100.00
2022-12-22T23:31:04.603Z,100.00
2022-12-22T23:33:34.653Z,100.00
2022-12-22T23:36:03.046Z,100.00
2022-12-22T23:38:32.035Z,100.00
2022-12-22T23:41:03.276Z,100.00
2022-12-22T23:43:32.083Z,100.00
2022-12-22T23:46:00.933Z,100.00
2022-12-22T23:48:29.449Z,100.00
2022-12-22T23:50:59.231Z,100.00
2022-12-22T23:53:27.680Z,100.00
2022-12-22T23:55:56.247Z,100.00
2022-12-22T23:58:24.918Z,100.00
